sensor_id;sensor_type;location;lat;lon;timestamp;P1;durP1;ratioP1;P2;durP2;ratioP2
71730;SDS011;65964;43.496;3.710;2023-04-28T00:01:47;14.80;;;8.48;;
71730;SDS011;65964;43.496;3.710;2023-04-28T00:04:14;14.13;;;8.18;;
71730;SDS011;65964;43.496;3.710;2023-04-28T00:06:40;15.50;;;9.57;;
71730;SDS011;65964;43.496;3.710;2023-04-28T00:09:06;13.20;;;8.30;;
71730;SDS011;65964;43.496;3.710;2023-04-28T00:11:36;16.23;;;8.35;;
71730;SDS011;65964;43.496;3.710;2023-04-28T00:14:02;15.50;;;9.20;;
71730;SDS011;65964;43.496;3.710;2023-04-28T00:16:28;17.95;;;8.27;;
71730;SDS011;65964;43.496;3.710;2023-04-28T00:18:55;12.38;;;7.80;;
71730;SDS011;65964;43.496;3.710;2023-04-28T00:21:21;15.35;;;8.23;;
71730;SDS011;65964;43.496;3.710;2023-04-28T00:23:47;15.88;;;7.97;;
71730;SDS011;65964;43.496;3.710;2023-04-28T00:26:13;15.15;;;8.10;;
71730;SDS011;65964;43.496;3.710;2023-04-28T00:28:39;14.38;;;7.72;;
71730;SDS011;65964;43.496;3.710;2023-04-28T00:31:09;18.58;;;8.05;;
71730;SDS011;65964;43.496;3.710;2023-04-28T00:33:36;15.55;;;8.63;;
71730;SDS011;65964;43.496;3.710;2023-04-28T00:36:02;17.20;;;8.18;;
71730;SDS011;65964;43.496;3.710;2023-04-28T00:38:29;16.45;;;8.48;;
71730;SDS011;65964;43.496;3.710;2023-04-28T00:40:55;18.88;;;8.10;;
71730;SDS011;65964;43.496;3.710;2023-04-28T00:43:21;15.45;;;7.95;;
71730;SDS011;65964;43.496;3.710;2023-04-28T00:45:49;15.23;;;8.23;;
71730;SDS011;65964;43.496;3.710;2023-04-28T00:48:16;14.23;;;8.05;;
71730;SDS011;65964;43.496;3.710;2023-04-28T00:50:42;15.55;;;9.02;;
71730;SDS011;65964;43.496;3.710;2023-04-28T00:53:09;15.52;;;8.60;;
71730;SDS011;65964;43.496;3.710;2023-04-28T00:55:35;16.67;;;8.27;;
71730;SDS011;65964;43.496;3.710;2023-04-28T00:58:02;14.43;;;8.57;;
71730;SDS011;65964;43.496;3.710;2023-04-28T01:00:28;11.88;;;7.35;;
71730;SDS011;65964;43.496;3.710;2023-04-28T01:02:54;15.93;;;7.82;;
71730;SDS011;65964;43.496;3.710;2023-04-28T01:05:21;14.60;;;8.00;;
71730;SDS011;65964;43.496;3.710;2023-04-28T01:07:48;14.77;;;8.05;;
71730;SDS011;65964;43.496;3.710;2023-04-28T01:10:14;15.68;;;7.57;;
71730;SDS011;65964;43.496;3.710;2023-04-28T01:12:40;12.77;;;7.40;;
71730;SDS011;65964;43.496;3.710;2023-04-28T01:15:07;15.20;;;7.47;;
71730;SDS011;65964;43.496;3.710;2023-04-28T01:17:36;12.77;;;7.35;;
71730;SDS011;65964;43.496;3.710;2023-04-28T01:20:03;17.27;;;7.63;;
71730;SDS011;65964;43.496;3.710;2023-04-28T01:22:29;16.85;;;7.80;;
71730;SDS011;65964;43.496;3.710;2023-04-28T01:24:55;14.95;;;8.00;;
71730;SDS011;65964;43.496;3.710;2023-04-28T01:27:24;17.02;;;7.85;;
71730;SDS011;65964;43.496;3.710;2023-04-28T01:29:50;14.52;;;8.15;;
71730;SDS011;65964;43.496;3.710;2023-04-28T01:32:16;17.60;;;8.57;;
71730;SDS011;65964;43.496;3.710;2023-04-28T01:34:42;15.60;;;8.10;;
71730;SDS011;65964;43.496;3.710;2023-04-28T01:37:08;18.02;;;8.82;;
71730;SDS011;65964;43.496;3.710;2023-04-28T01:39:34;16.02;;;9.20;;
71730;SDS011;65964;43.496;3.710;2023-04-28T01:42:00;19.10;;;10.10;;
71730;SDS011;65964;43.496;3.710;2023-04-28T01:44:26;17.27;;;9.07;;
71730;SDS011;65964;43.496;3.710;2023-04-28T01:46:52;16.92;;;8.95;;
71730;SDS011;65964;43.496;3.710;2023-04-28T01:49:18;21.88;;;9.20;;
71730;SDS011;65964;43.496;3.710;2023-04-28T01:51:44;20.25;;;8.95;;
71730;SDS011;65964;43.496;3.710;2023-04-28T01:54:10;22.98;;;9.43;;
71730;SDS011;65964;43.496;3.710;2023-04-28T01:56:36;22.08;;;9.93;;
71730;SDS011;65964;43.496;3.710;2023-04-28T01:59:02;19.35;;;9.73;;
71730;SDS011;65964;43.496;3.710;2023-04-28T02:01:28;21.88;;;10.65;;
71730;SDS011;65964;43.496;3.710;2023-04-28T02:03:55;22.73;;;12.02;;
71730;SDS011;65964;43.496;3.710;2023-04-28T02:06:21;22.77;;;11.35;;
71730;SDS011;65964;43.496;3.710;2023-04-28T02:08:47;21.88;;;11.75;;
71730;SDS011;65964;43.496;3.710;2023-04-28T02:11:13;22.08;;;11.18;;
71730;SDS011;65964;43.496;3.710;2023-04-28T02:13:39;22.55;;;11.15;;
71730;SDS011;65964;43.496;3.710;2023-04-28T02:16:05;40.13;;;13.20;;
71730;SDS011;65964;43.496;3.710;2023-04-28T02:18:31;24.30;;;11.10;;
71730;SDS011;65964;43.496;3.710;2023-04-28T02:20:57;28.65;;;11.48;;
71730;SDS011;65964;43.496;3.710;2023-04-28T02:23:23;25.70;;;11.27;;
71730;SDS011;65964;43.496;3.710;2023-04-28T02:25:49;22.25;;;10.48;;
71730;SDS011;65964;43.496;3.710;2023-04-28T02:28:15;20.10;;;10.15;;
71730;SDS011;65964;43.496;3.710;2023-04-28T02:30:41;24.60;;;11.05;;
71730;SDS011;65964;43.496;3.710;2023-04-28T02:33:07;19.80;;;10.15;;
71730;SDS011;65964;43.496;3.710;2023-04-28T02:35:33;22.83;;;11.55;;
71730;SDS011;65964;43.496;3.710;2023-04-28T02:37:59;22.80;;;10.27;;
71730;SDS011;65964;43.496;3.710;2023-04-28T02:40:25;23.38;;;10.68;;
71730;SDS011;65964;43.496;3.710;2023-04-28T02:42:51;24.08;;;10.18;;
71730;SDS011;65964;43.496;3.710;2023-04-28T02:45:17;20.88;;;8.13;;
71730;SDS011;65964;43.496;3.710;2023-04-28T02:47:43;17.02;;;7.80;;
71730;SDS011;65964;43.496;3.710;2023-04-28T02:50:09;15.73;;;6.82;;
71730;SDS011;65964;43.496;3.710;2023-04-28T02:52:35;19.98;;;7.13;;
71730;SDS011;65964;43.496;3.710;2023-04-28T02:55:02;17.92;;;7.95;;
71730;SDS011;65964;43.496;3.710;2023-04-28T02:57:28;18.02;;;7.78;;
71730;SDS011;65964;43.496;3.710;2023-04-28T02:59:55;19.92;;;8.35;;
71730;SDS011;65964;43.496;3.710;2023-04-28T03:02:21;17.50;;;8.07;;
71730;SDS011;65964;43.496;3.710;2023-04-28T03:04:47;17.50;;;7.28;;
71730;SDS011;65964;43.496;3.710;2023-04-28T03:07:13;16.35;;;8.20;;
71730;SDS011;65964;43.496;3.710;2023-04-28T03:09:39;16.55;;;7.25;;
71730;SDS011;65964;43.496;3.710;2023-04-28T03:12:05;15.77;;;7.85;;
71730;SDS011;65964;43.496;3.710;2023-04-28T03:14:31;22.55;;;8.60;;
71730;SDS011;65964;43.496;3.710;2023-04-28T03:16:57;21.92;;;8.68;;
71730;SDS011;65964;43.496;3.710;2023-04-28T03:19:23;20.63;;;8.88;;
71730;SDS011;65964;43.496;3.710;2023-04-28T03:21:50;22.27;;;8.82;;
71730;SDS011;65964;43.496;3.710;2023-04-28T03:24:16;25.38;;;8.35;;
71730;SDS011;65964;43.496;3.710;2023-04-28T03:26:42;22.27;;;8.32;;
71730;SDS011;65964;43.496;3.710;2023-04-28T03:29:08;19.83;;;8.00;;
71730;SDS011;65964;43.496;3.710;2023-04-28T03:31:34;20.02;;;7.75;;
71730;SDS011;65964;43.496;3.710;2023-04-28T03:34:00;20.80;;;7.45;;
71730;SDS011;65964;43.496;3.710;2023-04-28T03:36:27;17.38;;;8.05;;
71730;SDS011;65964;43.496;3.710;2023-04-28T03:38:53;18.50;;;8.52;;
71730;SDS011;65964;43.496;3.710;2023-04-28T03:41:19;21.00;;;9.23;;
71730;SDS011;65964;43.496;3.710;2023-04-28T03:43:45;25.90;;;10.00;;
71730;SDS011;65964;43.496;3.710;2023-04-28T03:46:11;23.20;;;10.18;;
71730;SDS011;65964;43.496;3.710;2023-04-28T03:48:37;24.83;;;10.82;;
71730;SDS011;65964;43.496;3.710;2023-04-28T03:51:03;23.88;;;11.90;;
71730;SDS011;65964;43.496;3.710;2023-04-28T03:53:29;23.35;;;11.77;;
71730;SDS011;65964;43.496;3.710;2023-04-28T03:55:55;25.42;;;10.88;;
71730;SDS011;65964;43.496;3.710;2023-04-28T03:58:21;29.27;;;11.73;;
71730;SDS011;65964;43.496;3.710;2023-04-28T04:00:47;24.60;;;11.88;;
71730;SDS011;65964;43.496;3.710;2023-04-28T04:03:13;27.02;;;12.45;;
71730;SDS011;65964;43.496;3.710;2023-04-28T04:05:39;29.13;;;12.05;;
71730;SDS011;65964;43.496;3.710;2023-04-28T04:08:05;26.85;;;12.80;;
71730;SDS011;65964;43.496;3.710;2023-04-28T04:10:31;27.33;;;12.18;;
71730;SDS011;65964;43.496;3.710;2023-04-28T04:12:57;27.60;;;13.45;;
71730;SDS011;65964;43.496;3.710;2023-04-28T04:15:24;27.92;;;13.43;;
71730;SDS011;65964;43.496;3.710;2023-04-28T04:17:50;24.05;;;11.93;;
71730;SDS011;65964;43.496;3.710;2023-04-28T04:20:16;21.60;;;11.20;;
71730;SDS011;65964;43.496;3.710;2023-04-28T04:22:42;26.85;;;12.27;;
71730;SDS011;65964;43.496;3.710;2023-04-28T04:25:08;29.90;;;13.10;;
71730;SDS011;65964;43.496;3.710;2023-04-28T04:27:34;29.10;;;13.15;;
71730;SDS011;65964;43.496;3.710;2023-04-28T04:30:00;30.13;;;13.20;;
71730;SDS011;65964;43.496;3.710;2023-04-28T04:32:26;23.95;;;11.25;;
71730;SDS011;65964;43.496;3.710;2023-04-28T04:34:52;25.58;;;11.10;;
71730;SDS011;65964;43.496;3.710;2023-04-28T04:37:18;28.38;;;10.77;;
71730;SDS011;65964;43.496;3.710;2023-04-28T04:39:44;26.98;;;10.43;;
71730;SDS011;65964;43.496;3.710;2023-04-28T04:42:10;23.63;;;10.48;;
71730;SDS011;65964;43.496;3.710;2023-04-28T04:44:36;25.58;;;10.02;;
71730;SDS011;65964;43.496;3.710;2023-04-28T04:47:02;24.50;;;9.52;;
71730;SDS011;65964;43.496;3.710;2023-04-28T04:49:28;31.15;;;11.25;;
71730;SDS011;65964;43.496;3.710;2023-04-28T04:51:54;26.27;;;10.10;;
71730;SDS011;65964;43.496;3.710;2023-04-28T04:54:20;22.73;;;8.75;;
71730;SDS011;65964;43.496;3.710;2023-04-28T04:56:46;21.92;;;8.82;;
71730;SDS011;65964;43.496;3.710;2023-04-28T04:59:12;23.05;;;8.80;;
71730;SDS011;65964;43.496;3.710;2023-04-28T05:01:38;23.77;;;9.00;;
71730;SDS011;65964;43.496;3.710;2023-04-28T05:04:04;24.80;;;8.45;;
71730;SDS011;65964;43.496;3.710;2023-04-28T05:06:30;24.05;;;8.73;;
71730;SDS011;65964;43.496;3.710;2023-04-28T05:08:57;22.33;;;8.48;;
71730;SDS011;65964;43.496;3.710;2023-04-28T05:11:23;25.52;;;8.90;;
71730;SDS011;65964;43.496;3.710;2023-04-28T05:13:50;28.90;;;8.95;;
71730;SDS011;65964;43.496;3.710;2023-04-28T05:16:16;21.33;;;9.05;;
71730;SDS011;65964;43.496;3.710;2023-04-28T05:18:42;23.50;;;8.50;;
71730;SDS011;65964;43.496;3.710;2023-04-28T05:21:08;27.70;;;9.13;;
71730;SDS011;65964;43.496;3.710;2023-04-28T05:23:35;22.60;;;7.97;;
71730;SDS011;65964;43.496;3.710;2023-04-28T05:26:01;22.23;;;8.43;;
71730;SDS011;65964;43.496;3.710;2023-04-28T05:28:28;27.00;;;8.55;;
71730;SDS011;65964;43.496;3.710;2023-04-28T05:30:55;26.52;;;10.60;;
71730;SDS011;65964;43.496;3.710;2023-04-28T05:33:21;26.83;;;10.95;;
71730;SDS011;65964;43.496;3.710;2023-04-28T05:35:48;22.00;;;8.50;;
71730;SDS011;65964;43.496;3.710;2023-04-28T05:38:14;25.88;;;8.75;;
71730;SDS011;65964;43.496;3.710;2023-04-28T05:40:40;20.20;;;8.13;;
71730;SDS011;65964;43.496;3.710;2023-04-28T05:43:06;26.38;;;8.35;;
71730;SDS011;65964;43.496;3.710;2023-04-28T05:45:32;22.88;;;8.43;;
71730;SDS011;65964;43.496;3.710;2023-04-28T05:47:59;22.98;;;7.90;;
71730;SDS011;65964;43.496;3.710;2023-04-28T05:50:25;26.85;;;8.63;;
71730;SDS011;65964;43.496;3.710;2023-04-28T05:52:52;23.15;;;8.63;;
71730;SDS011;65964;43.496;3.710;2023-04-28T05:55:18;28.92;;;8.43;;
71730;SDS011;65964;43.496;3.710;2023-04-28T05:57:44;26.38;;;7.63;;
71730;SDS011;65964;43.496;3.710;2023-04-28T06:00:10;18.90;;;7.65;;
71730;SDS011;65964;43.496;3.710;2023-04-28T06:02:37;22.08;;;7.55;;
71730;SDS011;65964;43.496;3.710;2023-04-28T06:05:03;27.05;;;8.32;;
71730;SDS011;65964;43.496;3.710;2023-04-28T06:07:29;20.40;;;8.07;;
71730;SDS011;65964;43.496;3.710;2023-04-28T06:09:55;26.45;;;8.10;;
71730;SDS011;65964;43.496;3.710;2023-04-28T06:12:21;32.08;;;8.48;;
71730;SDS011;65964;43.496;3.710;2023-04-28T06:14:47;21.20;;;7.38;;
71730;SDS011;65964;43.496;3.710;2023-04-28T06:17:13;18.88;;;7.53;;
71730;SDS011;65964;43.496;3.710;2023-04-28T06:19:39;22.50;;;7.22;;
71730;SDS011;65964;43.496;3.710;2023-04-28T06:22:05;20.25;;;7.10;;
71730;SDS011;65964;43.496;3.710;2023-04-28T06:24:31;25.42;;;6.90;;
71730;SDS011;65964;43.496;3.710;2023-04-28T06:26:57;22.00;;;7.43;;
71730;SDS011;65964;43.496;3.710;2023-04-28T06:29:23;23.52;;;7.68;;
71730;SDS011;65964;43.496;3.710;2023-04-28T06:31:49;22.92;;;6.97;;
71730;SDS011;65964;43.496;3.710;2023-04-28T06:34:16;20.50;;;6.65;;
71730;SDS011;65964;43.496;3.710;2023-04-28T06:36:42;18.10;;;6.57;;
71730;SDS011;65964;43.496;3.710;2023-04-28T06:39:08;18.30;;;6.65;;
71730;SDS011;65964;43.496;3.710;2023-04-28T06:41:34;22.17;;;6.78;;
71730;SDS011;65964;43.496;3.710;2023-04-28T06:44:00;19.48;;;6.80;;
71730;SDS011;65964;43.496;3.710;2023-04-28T06:46:26;21.80;;;7.32;;
71730;SDS011;65964;43.496;3.710;2023-04-28T06:48:52;20.38;;;7.22;;
71730;SDS011;65964;43.496;3.710;2023-04-28T06:51:18;20.75;;;6.93;;
71730;SDS011;65964;43.496;3.710;2023-04-28T06:53:44;25.52;;;7.22;;
71730;SDS011;65964;43.496;3.710;2023-04-28T06:56:10;17.30;;;6.70;;
71730;SDS011;65964;43.496;3.710;2023-04-28T06:58:36;26.75;;;7.60;;
71730;SDS011;65964;43.496;3.710;2023-04-28T07:01:02;24.98;;;8.18;;
71730;SDS011;65964;43.496;3.710;2023-04-28T07:03:29;21.23;;;7.47;;
71730;SDS011;65964;43.496;3.710;2023-04-28T07:05:56;18.60;;;7.55;;
71730;SDS011;65964;43.496;3.710;2023-04-28T07:08:22;19.63;;;7.60;;
71730;SDS011;65964;43.496;3.710;2023-04-28T07:10:48;24.77;;;7.80;;
71730;SDS011;65964;43.496;3.710;2023-04-28T07:13:14;23.77;;;7.82;;
71730;SDS011;65964;43.496;3.710;2023-04-28T07:15:40;26.73;;;7.65;;
71730;SDS011;65964;43.496;3.710;2023-04-28T07:18:07;21.17;;;6.93;;
71730;SDS011;65964;43.496;3.710;2023-04-28T07:20:33;21.17;;;7.28;;
71730;SDS011;65964;43.496;3.710;2023-04-28T07:22:59;21.48;;;7.72;;
71730;SDS011;65964;43.496;3.710;2023-04-28T07:25:25;17.80;;;7.50;;
71730;SDS011;65964;43.496;3.710;2023-04-28T07:27:51;21.15;;;7.68;;
71730;SDS011;65964;43.496;3.710;2023-04-28T07:30:18;27.88;;;8.60;;
71730;SDS011;65964;43.496;3.710;2023-04-28T07:32:44;25.17;;;8.27;;
71730;SDS011;65964;43.496;3.710;2023-04-28T07:35:10;21.65;;;8.05;;
71730;SDS011;65964;43.496;3.710;2023-04-28T07:37:36;20.13;;;8.45;;
71730;SDS011;65964;43.496;3.710;2023-04-28T07:40:02;19.33;;;8.48;;
71730;SDS011;65964;43.496;3.710;2023-04-28T07:42:28;22.48;;;8.95;;
71730;SDS011;65964;43.496;3.710;2023-04-28T07:44:54;19.33;;;9.30;;
71730;SDS011;65964;43.496;3.710;2023-04-28T07:47:22;29.67;;;11.07;;
71730;SDS011;65964;43.496;3.710;2023-04-28T07:49:48;23.40;;;10.88;;
71730;SDS011;65964;43.496;3.710;2023-04-28T07:52:14;24.15;;;9.82;;
71730;SDS011;65964;43.496;3.710;2023-04-28T07:54:40;23.55;;;9.70;;
71730;SDS011;65964;43.496;3.710;2023-04-28T07:57:06;23.23;;;10.35;;
71730;SDS011;65964;43.496;3.710;2023-04-28T07:59:34;25.15;;;9.93;;
71730;SDS011;65964;43.496;3.710;2023-04-28T08:02:00;23.95;;;10.27;;
71730;SDS011;65964;43.496;3.710;2023-04-28T08:04:26;28.13;;;11.75;;
71730;SDS011;65964;43.496;3.710;2023-04-28T08:06:52;25.80;;;10.57;;
71730;SDS011;65964;43.496;3.710;2023-04-28T08:09:18;25.60;;;10.25;;
71730;SDS011;65964;43.496;3.710;2023-04-28T08:11:44;23.67;;;9.50;;
71730;SDS011;65964;43.496;3.710;2023-04-28T08:14:11;22.48;;;9.27;;
71730;SDS011;65964;43.496;3.710;2023-04-28T08:16:37;23.77;;;10.35;;
71730;SDS011;65964;43.496;3.710;2023-04-28T08:19:05;22.98;;;10.27;;
71730;SDS011;65964;43.496;3.710;2023-04-28T08:21:31;23.52;;;9.07;;
71730;SDS011;65964;43.496;3.710;2023-04-28T08:23:58;23.48;;;8.93;;
71730;SDS011;65964;43.496;3.710;2023-04-28T08:26:24;25.02;;;9.57;;
71730;SDS011;65964;43.496;3.710;2023-04-28T08:28:50;22.20;;;9.07;;
71730;SDS011;65964;43.496;3.710;2023-04-28T08:31:16;27.52;;;9.40;;
71730;SDS011;65964;43.496;3.710;2023-04-28T08:33:42;21.30;;;7.78;;
71730;SDS011;65964;43.496;3.710;2023-04-28T08:36:12;23.10;;;8.80;;
71730;SDS011;65964;43.496;3.710;2023-04-28T08:38:39;22.77;;;9.02;;
71730;SDS011;65964;43.496;3.710;2023-04-28T08:41:06;22.10;;;8.63;;
71730;SDS011;65964;43.496;3.710;2023-04-28T08:43:33;25.50;;;8.40;;
71730;SDS011;65964;43.496;3.710;2023-04-28T08:46:00;21.98;;;8.32;;
71730;SDS011;65964;43.496;3.710;2023-04-28T08:48:29;17.45;;;7.53;;
71730;SDS011;65964;43.496;3.710;2023-04-28T08:50:57;18.38;;;7.68;;
71730;SDS011;65964;43.496;3.710;2023-04-28T08:53:25;17.48;;;7.13;;
71730;SDS011;65964;43.496;3.710;2023-04-28T08:55:55;20.67;;;7.78;;
71730;SDS011;65964;43.496;3.710;2023-04-28T08:58:25;16.15;;;7.47;;
71730;SDS011;65964;43.496;3.710;2023-04-28T09:00:52;15.93;;;6.68;;
71730;SDS011;65964;43.496;3.710;2023-04-28T09:03:18;17.15;;;7.10;;
71730;SDS011;65964;43.496;3.710;2023-04-28T09:05:45;19.20;;;6.78;;
71730;SDS011;65964;43.496;3.710;2023-04-28T09:08:11;15.32;;;6.32;;
71730;SDS011;65964;43.496;3.710;2023-04-28T09:10:37;15.18;;;6.15;;
71730;SDS011;65964;43.496;3.710;2023-04-28T09:13:03;13.13;;;5.75;;
71730;SDS011;65964;43.496;3.710;2023-04-28T09:15:33;17.02;;;6.38;;
71730;SDS011;65964;43.496;3.710;2023-04-28T09:18:03;17.60;;;6.32;;
71730;SDS011;65964;43.496;3.710;2023-04-28T09:20:31;16.20;;;5.15;;
71730;SDS011;65964;43.496;3.710;2023-04-28T09:25:39;16.95;;;5.85;;
71730;SDS011;65964;43.496;3.710;2023-04-28T09:28:20;12.48;;;5.00;;
71730;SDS011;65964;43.496;3.710;2023-04-28T09:30:47;12.98;;;5.50;;
71730;SDS011;65964;43.496;3.710;2023-04-28T09:33:13;11.68;;;4.88;;
71730;SDS011;65964;43.496;3.710;2023-04-28T09:35:43;13.73;;;4.68;;
71730;SDS011;65964;43.496;3.710;2023-04-28T09:38:11;14.48;;;4.75;;
71730;SDS011;65964;43.496;3.710;2023-04-28T09:43:32;15.93;;;4.72;;
71730;SDS011;65964;43.496;3.710;2023-04-28T09:45:59;11.13;;;4.63;;
71730;SDS011;65964;43.496;3.710;2023-04-28T09:48:26;11.73;;;5.15;;
71730;SDS011;65964;43.496;3.710;2023-04-28T09:51:08;15.63;;;5.78;;
71730;SDS011;65964;43.496;3.710;2023-04-28T09:53:34;15.13;;;4.68;;
71730;SDS011;65964;43.496;3.710;2023-04-28T09:56:01;15.73;;;5.32;;
71730;SDS011;65964;43.496;3.710;2023-04-28T09:58:29;11.35;;;4.20;;
71730;SDS011;65964;43.496;3.710;2023-04-28T10:00:57;12.15;;;4.20;;
71730;SDS011;65964;43.496;3.710;2023-04-28T10:03:24;12.82;;;3.97;;
71730;SDS011;65964;43.496;3.710;2023-04-28T10:05:51;8.15;;;3.50;;
71730;SDS011;65964;43.496;3.710;2023-04-28T10:08:18;11.10;;;4.18;;
71730;SDS011;65964;43.496;3.710;2023-04-28T10:10:45;10.43;;;3.70;;
71730;SDS011;65964;43.496;3.710;2023-04-28T10:13:13;10.95;;;3.72;;
71730;SDS011;65964;43.496;3.710;2023-04-28T10:15:40;9.75;;;3.78;;
71730;SDS011;65964;43.496;3.710;2023-04-28T10:18:06;9.32;;;4.03;;
71730;SDS011;65964;43.496;3.710;2023-04-28T10:20:33;7.70;;;3.22;;
71730;SDS011;65964;43.496;3.710;2023-04-28T10:25:32;11.20;;;4.10;;
71730;SDS011;65964;43.496;3.710;2023-04-28T10:27:59;11.25;;;4.10;;
71730;SDS011;65964;43.496;3.710;2023-04-28T10:30:26;10.85;;;3.80;;
71730;SDS011;65964;43.496;3.710;2023-04-28T10:38:03;11.95;;;4.50;;
71730;SDS011;65964;43.496;3.710;2023-04-28T10:42:56;12.93;;;4.93;;
71730;SDS011;65964;43.496;3.710;2023-04-28T10:48:06;11.00;;;4.10;;
71730;SDS011;65964;43.496;3.710;2023-04-28T10:50:32;11.60;;;4.40;;
71730;SDS011;65964;43.496;3.710;2023-04-28T10:53:01;11.73;;;3.80;;
71730;SDS011;65964;43.496;3.710;2023-04-28T10:55:32;13.95;;;4.07;;
71730;SDS011;65964;43.496;3.710;2023-04-28T10:58:34;12.23;;;4.20;;
71730;SDS011;65964;43.496;3.710;2023-04-28T11:00:53;13.65;;;4.03;;
71730;SDS011;65964;43.496;3.710;2023-04-28T11:06:16;9.25;;;3.55;;
71730;SDS011;65964;43.496;3.710;2023-04-28T11:08:44;10.25;;;4.10;;
71730;SDS011;65964;43.496;3.710;2023-04-28T11:11:13;11.45;;;4.07;;
71730;SDS011;65964;43.496;3.710;2023-04-28T11:13:40;10.40;;;3.65;;
71730;SDS011;65964;43.496;3.710;2023-04-28T11:16:06;10.27;;;4.10;;
71730;SDS011;65964;43.496;3.710;2023-04-28T11:18:52;8.90;;;3.95;;
71730;SDS011;65964;43.496;3.710;2023-04-28T11:21:19;11.90;;;4.38;;
71730;SDS011;65964;43.496;3.710;2023-04-28T11:23:45;9.60;;;3.58;;
71730;SDS011;65964;43.496;3.710;2023-04-28T11:26:11;10.57;;;3.80;;
71730;SDS011;65964;43.496;3.710;2023-04-28T11:28:47;10.15;;;4.25;;
71730;SDS011;65964;43.496;3.710;2023-04-28T11:31:13;11.43;;;4.03;;
71730;SDS011;65964;43.496;3.710;2023-04-28T11:33:50;13.82;;;3.92;;
71730;SDS011;65964;43.496;3.710;2023-04-28T11:36:21;10.63;;;4.20;;
71730;SDS011;65964;43.496;3.710;2023-04-28T11:38:47;8.93;;;3.78;;
71730;SDS011;65964;43.496;3.710;2023-04-28T11:41:13;10.90;;;4.05;;
71730;SDS011;65964;43.496;3.710;2023-04-28T11:43:39;10.50;;;4.47;;
71730;SDS011;65964;43.496;3.710;2023-04-28T11:46:08;13.25;;;4.22;;
71730;SDS011;65964;43.496;3.710;2023-04-28T11:48:35;13.00;;;4.25;;
71730;SDS011;65964;43.496;3.710;2023-04-28T11:51:01;13.30;;;5.22;;
71730;SDS011;65964;43.496;3.710;2023-04-28T11:53:43;11.40;;;4.38;;
71730;SDS011;65964;43.496;3.710;2023-04-28T11:56:09;12.85;;;4.43;;
71730;SDS011;65964;43.496;3.710;2023-04-28T11:58:37;11.25;;;3.92;;
71730;SDS011;65964;43.496;3.710;2023-04-28T12:03:41;11.82;;;4.20;;
71730;SDS011;65964;43.496;3.710;2023-04-28T12:06:07;10.05;;;3.60;;
71730;SDS011;65964;43.496;3.710;2023-04-28T12:08:33;10.52;;;4.05;;
71730;SDS011;65964;43.496;3.710;2023-04-28T12:11:08;12.15;;;4.10;;
71730;SDS011;65964;43.496;3.710;2023-04-28T12:13:35;15.88;;;4.57;;
71730;SDS011;65964;43.496;3.710;2023-04-28T12:16:02;14.30;;;4.70;;
71730;SDS011;65964;43.496;3.710;2023-04-28T12:18:30;13.02;;;4.00;;
71730;SDS011;65964;43.496;3.710;2023-04-28T12:20:56;10.77;;;4.13;;
71730;SDS011;65964;43.496;3.710;2023-04-28T12:25:56;8.07;;;3.47;;
71730;SDS011;65964;43.496;3.710;2023-04-28T12:28:22;11.45;;;5.20;;
71730;SDS011;65964;43.496;3.710;2023-04-28T12:31:01;12.18;;;4.10;;
71730;SDS011;65964;43.496;3.710;2023-04-28T12:33:28;10.00;;;4.32;;
71730;SDS011;65964;43.496;3.710;2023-04-28T12:35:57;12.25;;;4.78;;
71730;SDS011;65964;43.496;3.710;2023-04-28T12:38:23;11.65;;;4.50;;
71730;SDS011;65964;43.496;3.710;2023-04-28T12:40:50;10.70;;;4.65;;
71730;SDS011;65964;43.496;3.710;2023-04-28T12:43:16;11.45;;;4.50;;
71730;SDS011;65964;43.496;3.710;2023-04-28T12:45:42;11.52;;;4.60;;
71730;SDS011;65964;43.496;3.710;2023-04-28T12:48:08;11.48;;;5.30;;
71730;SDS011;65964;43.496;3.710;2023-04-28T12:50:34;11.77;;;4.80;;
71730;SDS011;65964;43.496;3.710;2023-04-28T12:53:00;12.57;;;4.97;;
71730;SDS011;65964;43.496;3.710;2023-04-28T12:55:27;14.35;;;4.78;;
71730;SDS011;65964;43.496;3.710;2023-04-28T12:57:54;13.10;;;4.75;;
71730;SDS011;65964;43.496;3.710;2023-04-28T13:00:20;10.88;;;5.03;;
71730;SDS011;65964;43.496;3.710;2023-04-28T13:02:47;13.20;;;5.85;;
71730;SDS011;65964;43.496;3.710;2023-04-28T13:05:13;17.55;;;5.63;;
71730;SDS011;65964;43.496;3.710;2023-04-28T13:07:40;14.52;;;4.90;;
71730;SDS011;65964;43.496;3.710;2023-04-28T13:10:06;13.13;;;5.45;;
71730;SDS011;65964;43.496;3.710;2023-04-28T13:12:32;12.23;;;4.90;;
71730;SDS011;65964;43.496;3.710;2023-04-28T13:15:02;10.25;;;4.88;;
71730;SDS011;65964;43.496;3.710;2023-04-28T13:17:28;11.95;;;4.43;;
71730;SDS011;65964;43.496;3.710;2023-04-28T13:19:54;12.82;;;4.50;;
71730;SDS011;65964;43.496;3.710;2023-04-28T13:22:20;10.85;;;4.50;;
71730;SDS011;65964;43.496;3.710;2023-04-28T13:24:47;15.13;;;5.15;;
71730;SDS011;65964;43.496;3.710;2023-04-28T13:27:13;11.65;;;5.13;;
71730;SDS011;65964;43.496;3.710;2023-04-28T13:29:39;14.45;;;5.70;;
71730;SDS011;65964;43.496;3.710;2023-04-28T13:32:05;13.50;;;5.38;;
71730;SDS011;65964;43.496;3.710;2023-04-28T13:34:32;12.35;;;5.28;;
71730;SDS011;65964;43.496;3.710;2023-04-28T13:36:58;10.02;;;4.03;;
71730;SDS011;65964;43.496;3.710;2023-04-28T13:39:24;9.27;;;4.70;;
71730;SDS011;65964;43.496;3.710;2023-04-28T13:41:50;11.80;;;5.03;;
71730;SDS011;65964;43.496;3.710;2023-04-28T13:44:16;8.77;;;4.10;;
71730;SDS011;65964;43.496;3.710;2023-04-28T13:46:42;8.82;;;4.20;;
71730;SDS011;65964;43.496;3.710;2023-04-28T13:49:08;11.73;;;5.20;;
71730;SDS011;65964;43.496;3.710;2023-04-28T13:51:35;11.18;;;4.43;;
71730;SDS011;65964;43.496;3.710;2023-04-28T13:54:01;10.35;;;4.95;;
71730;SDS011;65964;43.496;3.710;2023-04-28T13:56:33;12.88;;;4.70;;
71730;SDS011;65964;43.496;3.710;2023-04-28T13:58:59;8.75;;;4.68;;
71730;SDS011;65964;43.496;3.710;2023-04-28T14:01:25;8.57;;;4.70;;
71730;SDS011;65964;43.496;3.710;2023-04-28T14:03:51;9.20;;;4.35;;
71730;SDS011;65964;43.496;3.710;2023-04-28T14:06:17;8.48;;;4.18;;
71730;SDS011;65964;43.496;3.710;2023-04-28T14:08:43;9.85;;;4.35;;
71730;SDS011;65964;43.496;3.710;2023-04-28T14:11:09;6.38;;;3.58;;
71730;SDS011;65964;43.496;3.710;2023-04-28T14:13:36;8.18;;;4.07;;
71730;SDS011;65964;43.496;3.710;2023-04-28T14:16:02;8.10;;;3.80;;
71730;SDS011;65964;43.496;3.710;2023-04-28T14:18:28;10.60;;;4.10;;
71730;SDS011;65964;43.496;3.710;2023-04-28T14:20:54;9.18;;;4.22;;
71730;SDS011;65964;43.496;3.710;2023-04-28T14:23:21;9.60;;;4.32;;
71730;SDS011;65964;43.496;3.710;2023-04-28T14:25:47;8.95;;;4.35;;
71730;SDS011;65964;43.496;3.710;2023-04-28T14:28:14;8.85;;;4.15;;
71730;SDS011;65964;43.496;3.710;2023-04-28T14:30:40;9.35;;;4.63;;
71730;SDS011;65964;43.496;3.710;2023-04-28T14:33:06;9.77;;;4.40;;
71730;SDS011;65964;43.496;3.710;2023-04-28T14:35:32;8.65;;;4.00;;
71730;SDS011;65964;43.496;3.710;2023-04-28T14:37:59;9.32;;;4.18;;
71730;SDS011;65964;43.496;3.710;2023-04-28T14:40:25;10.20;;;4.80;;
71730;SDS011;65964;43.496;3.710;2023-04-28T14:42:51;8.55;;;4.85;;
71730;SDS011;65964;43.496;3.710;2023-04-28T14:45:17;7.80;;;4.03;;
71730;SDS011;65964;43.496;3.710;2023-04-28T14:47:43;7.60;;;4.28;;
71730;SDS011;65964;43.496;3.710;2023-04-28T14:50:10;6.97;;;3.95;;
71730;SDS011;65964;43.496;3.710;2023-04-28T14:52:36;9.95;;;4.05;;
71730;SDS011;65964;43.496;3.710;2023-04-28T14:55:02;9.90;;;4.40;;
71730;SDS011;65964;43.496;3.710;2023-04-28T14:57:29;9.38;;;4.38;;